首页
METAR-TAF:

METAR-TAF

机场 :

Quesnel, 不列颠哥伦比亚, 加拿大

纬度: 53-02N, 经度: 122-31W, 海拔: 545米

当前天气观测

该预报发布于1小时和7分钟前的09:00 UTC
风速8节,风向南转南东
温度 5°C
湿度 87%
气压 1008 hPa
能見度: 12.9公里
阴天层高于5500英尺
小雨

METAR: CYQZ 150900Z AUTO 15008KT 8SM -RA OVC055 05/03 A2978 RMK SLP106

时间: 02:07 (10:07 UTC)

预报

该预报发布于9小时和29分钟前的00:38 UTC
预报有效从15日的 01点(UTC)到 15日的 06点(UTC)
风速6节,风向东南
能見度: 10公里
散云层高于4000英尺
阴天层高于8000英尺
短暂存在
从 15日的 01点(UTC)到 15日的 06点(UTC)
能見度: 6.4公里
多云层高于4000英尺
阴天层高于8000英尺
小雨, 轻雾

TAF: CYQZ 150038Z 1501/1506 14006KT P6SM SCT040 OVC080 TEMPO 1501/1506 4SM -RA BR BKN040 OVC080 RMK FCST BASED ON AUTO OBS. NXT FCST WILL BE ISSUED AT 151145Z

超过4000个机场的气象观测和天气预报(METAR&TAF报告)。

可查询的气象台以黄色和红色小点在地图上表示。

将鼠标移到小点上方,可查看气象台名称。

然后点击查看天气观测和预报。

如需切换地图:点击带黑十字的绿色按钮放大地图;点击带横线的绿色按钮缩小地图;或者点击绿色箭头查看邻近地区的地图。


METAR-TAF: